Santa Fe, NM (87504)

9:05 PM MDT on July 03, 2015 (GMT -0600)
Tesuque Fire District | | Change Station
CLOSE
Current Station
Personal Weather Station
Location: Tesuque, NM
Elevation: 6608 ft
Nearby Weather Stations

Elev 6608 ft 35.78 °N, 105.95 °W | Updated 6 seconds ago

Clear
Clear
68.5 °F
Feels Like 68.5 °F
N
0.0
Wind Variable Wind from NNW
Gusts 0.0 mph

Today
High -- | Low -- °F
--% Chance of Precip.
Yesterday
High -- | Low -- °F
Precip. -- in
5:52 AM 8:23 PM
Waning Gibbous, 95% visible
Pressure 29.89 in
Visibility 10.0 miles
Clouds Clear
Dew Point 53 °F
Humidity 59%
Rainfall 0.00 in
Snow Depth Not available.
UV 0 out of 12
Pollen .50 out of 12
Air Quality Not available.
Flu Activity Not available.
METAR KSAF 040253Z AUTO 18003KT 10SM CLR 22/12 A3018 RMK AO2 SLP120 T02170117 53003

More Conditions Fewer Conditions

Pressure 29.89 in
Visibility 10.0 miles
Clouds Clear
Dew Point 53 °F
Humidity 59%
Rainfall 0.00 in
Snow Depth Not available.
UV 0 out of 12
Pollen .50 out of 12
Air Quality Not available.
Flu Activity Not available.
METAR KSAF 040253Z AUTO 18003KT 10SM CLR 22/12 A3018 RMK AO2 SLP120 T02170117 53003

More Conditions Fewer Conditions

10-Day Weather Forecast

×

Almanac

Astronomy

Jul. 03, 2015 Rise Set
Actual Time
Civil Twilight
Nautical Twilight
Astronomical Twilight
Moon
Length of Visible Light
Length of Day
Tomorrow will be .
, % of the Moon is Illuminated

Today's Extremes

State Highs State Lows

Community

WunderPhotos

Upload Photos

1,834,909 photos uploaded!

WunderBlogs® & News

Nearby

Air Quality

  Air Quality AQ Index Pollutant
Not available.

Snow Depth

Station Depth Elevation

Earthquake Activity

City Distance Mag. Time & Date
Minimum magnitude displayed is 2.5.

Coastal Water Temperatures

Place Temperature

Stations

Nearby Weather Stations

Station Location Temp. Windchill Dew Point Humidity Wind Precip. Elev Updated Type